createdAt,value
2018-03-20T00:02:33.382Z,8.17
2018-03-20T00:05:08.215Z,7.32
2018-03-20T00:07:44.661Z,8.60
2018-03-20T00:10:19.686Z,7.57
2018-03-20T00:12:55.351Z,6.85
2018-03-20T00:15:33.597Z,9.83
2018-03-20T00:18:08.291Z,9.80
2018-03-20T00:20:44.709Z,8.40
2018-03-20T00:23:20.138Z,10.63
2018-03-20T00:25:55.376Z,7.20
2018-03-20T00:28:30.867Z,12.70
2018-03-20T00:31:05.514Z,5.17
2018-03-20T00:33:40.274Z,4.60
2018-03-20T00:36:15.410Z,7.57
2018-03-20T00:38:50.729Z,7.57
2018-03-20T00:41:26.397Z,7.40
2018-03-20T00:44:01.555Z,7.20
2018-03-20T00:46:36.834Z,5.50
2018-03-20T00:49:11.473Z,8.27
2018-03-20T00:51:46.597Z,7.97
2018-03-20T00:54:21.390Z,8.23
2018-03-20T00:56:55.705Z,9.90
2018-03-20T00:59:30.184Z,13.43
2018-03-20T01:02:04.894Z,8.93
2018-03-20T01:04:39.643Z,8.67
2018-03-20T01:07:14.574Z,8.17
2018-03-20T01:09:49.490Z,7.63
2018-03-20T01:12:24.547Z,6.83
2018-03-20T01:14:59.385Z,6.47
2018-03-20T01:17:33.757Z,6.17
2018-03-20T01:20:08.479Z,4.03
2018-03-20T01:22:42.906Z,7.97
2018-03-20T01:25:18.080Z,7.30
2018-03-20T01:27:53.424Z,11.90
2018-03-20T01:30:28.533Z,10.20
2018-03-20T01:33:03.570Z,12.10
2018-03-20T01:35:37.901Z,7.90
2018-03-20T01:38:13.518Z,10.80
2018-03-20T01:40:48.776Z,8.48
2018-03-20T01:43:24.079Z,10.50
2018-03-20T01:45:59.470Z,8.98
2018-03-20T01:48:34.015Z,12.90
2018-03-20T01:51:09.531Z,7.03
2018-03-20T01:53:44.857Z,7.87
2018-03-20T01:56:19.505Z,12.03
2018-03-20T01:58:54.159Z,7.80
2018-03-20T02:01:29.610Z,11.33
2018-03-20T02:04:04.336Z,9.30
2018-03-20T02:06:39.463Z,9.13
2018-03-20T02:09:13.973Z,8.67
2018-03-20T02:11:48.895Z,12.73
2018-03-20T02:14:23.702Z,19.63
2018-03-20T02:16:59.871Z,15.43
2018-03-20T02:19:34.827Z,10.53
2018-03-20T02:22:09.757Z,10.00
2018-03-20T02:24:45.018Z,11.35
2018-03-20T02:27:19.919Z,10.67
2018-03-20T02:29:55.145Z,7.47
2018-03-20T02:32:29.611Z,5.40
2018-03-20T02:35:05.319Z,12.30
2018-03-20T02:37:40.307Z,9.63
2018-03-20T02:40:15.775Z,8.37
2018-03-20T02:42:50.146Z,15.83
2018-03-20T02:45:24.829Z,9.37
2018-03-20T02:48:00.050Z,15.87
2018-03-20T02:50:34.782Z,11.93
2018-03-20T02:53:09.593Z,10.85
2018-03-20T02:55:45.131Z,11.57
2018-03-20T02:58:20.079Z,5.10
2018-03-20T03:00:55.742Z,18.23
2018-03-20T03:03:30.827Z,13.33
2018-03-20T03:06:05.200Z,11.43
2018-03-20T03:08:40.249Z,12.00
2018-03-20T03:11:15.742Z,9.40
2018-03-20T03:13:50.981Z,15.10
2018-03-20T03:16:26.173Z,9.73
2018-03-20T03:19:00.790Z,12.77
2018-03-20T03:21:35.787Z,9.60
2018-03-20T03:24:10.865Z,11.93
2018-03-20T03:26:45.578Z,6.85
2018-03-20T03:29:20.771Z,8.03
2018-03-20T03:31:56.055Z,13.80
2018-03-20T03:34:30.947Z,19.97
2018-03-20T03:37:05.322Z,10.73
2018-03-20T03:39:39.983Z,8.47
2018-03-20T03:42:14.947Z,20.00
2018-03-20T03:44:50.256Z,24.87
2018-03-20T03:47:25.004Z,17.10
2018-03-20T03:50:00.830Z,11.85
2018-03-20T03:52:35.756Z,14.30
2018-03-20T03:55:10.353Z,16.90
2018-03-20T03:57:45.379Z,29.00
2018-03-20T04:00:20.537Z,35.53
2018-03-20T04:02:56.106Z,27.15
2018-03-20T04:05:31.260Z,15.60
2018-03-20T04:08:05.500Z,9.17
2018-03-20T04:10:40.038Z,8.40
2018-03-20T04:13:14.912Z,25.10
2018-03-20T04:15:50.169Z,14.17
2018-03-20T04:18:25.227Z,10.70
2018-03-20T04:21:00.591Z,24.20
2018-03-20T04:23:35.882Z,17.10
2018-03-20T04:26:10.914Z,12.10
2018-03-20T04:28:46.443Z,14.07
2018-03-20T04:31:21.159Z,12.70
2018-03-20T04:33:56.013Z,13.30
2018-03-20T04:36:30.905Z,18.50
2018-03-20T04:39:06.182Z,15.70
2018-03-20T04:41:41.734Z,27.23
2018-03-20T04:44:16.926Z,19.90
2018-03-20T04:46:51.481Z,13.20
2018-03-20T04:49:26.924Z,17.17
2018-03-20T04:52:01.429Z,20.20
2018-03-20T04:54:36.010Z,19.90
2018-03-20T04:57:11.006Z,18.50
2018-03-20T04:59:45.974Z,18.58
2018-03-20T05:02:20.902Z,21.25
2018-03-20T05:04:56.193Z,17.12
2018-03-20T05:07:31.333Z,9.70
2018-03-20T05:10:06.156Z,19.33
2018-03-20T05:12:40.967Z,15.90
2018-03-20T05:15:16.306Z,11.17
2018-03-20T05:17:51.477Z,39.67
2018-03-20T05:20:31.674Z,16.37
2018-03-20T05:23:11.650Z,20.90
2018-03-20T05:25:46.110Z,13.93
2018-03-20T05:28:21.109Z,18.70
2018-03-20T05:30:55.754Z,19.17
2018-03-20T05:33:30.047Z,17.83
2018-03-20T05:36:04.455Z,20.25
2018-03-20T05:38:38.916Z,12.70
2018-03-20T05:41:14.039Z,11.90
2018-03-20T05:43:48.914Z,10.93
2018-03-20T05:49:26.270Z,17.27
2018-03-20T05:52:02.817Z,20.57
2018-03-20T05:54:37.066Z,14.00
2018-03-20T05:57:11.406Z,18.43
2018-03-20T05:59:46.440Z,14.33
2018-03-20T06:02:20.926Z,19.70
2018-03-20T06:04:56.067Z,20.70
2018-03-20T06:07:30.666Z,22.47
2018-03-20T06:10:06.201Z,25.07
2018-03-20T06:12:41.115Z,20.40
2018-03-20T06:15:16.605Z,17.27
2018-03-20T06:17:51.572Z,18.23
2018-03-20T06:20:26.560Z,18.27
2018-03-20T06:23:01.467Z,20.10
2018-03-20T06:25:36.383Z,18.80
2018-03-20T06:28:11.238Z,16.70
2018-03-20T06:30:46.085Z,16.15
2018-03-20T06:33:21.218Z,7.90
2018-03-20T06:35:56.131Z,11.77
2018-03-20T06:38:31.160Z,11.23
2018-03-20T06:41:05.733Z,9.77
2018-03-20T06:43:40.719Z,12.50
2018-03-20T06:46:15.612Z,6.97
2018-03-20T06:48:50.495Z,8.33
2018-03-20T06:51:25.280Z,5.80
2018-03-20T06:54:00.419Z,7.37
2018-03-20T06:56:35.183Z,7.30
2018-03-20T06:59:10.171Z,5.43
2018-03-20T07:01:45.553Z,4.15
2018-03-20T07:04:20.696Z,4.67
2018-03-20T07:06:55.204Z,3.97
2018-03-20T07:09:30.666Z,5.00
2018-03-20T07:12:05.648Z,4.43
2018-03-20T07:14:40.407Z,3.90
2018-03-20T07:17:15.265Z,5.20
2018-03-20T07:19:50.427Z,5.00
2018-03-20T07:22:25.373Z,4.73
2018-03-20T07:25:00.432Z,3.47
2018-03-20T07:27:35.291Z,4.70
2018-03-20T07:30:09.798Z,4.80
2018-03-20T07:32:45.649Z,4.78
2018-03-20T07:35:20.684Z,4.70
2018-03-20T07:37:55.719Z,7.07
2018-03-20T07:40:30.586Z,6.80
2018-03-20T07:43:05.603Z,5.33
2018-03-20T07:45:40.789Z,4.87
2018-03-20T07:48:16.165Z,3.72
2018-03-20T07:50:51.321Z,10.35
2018-03-20T07:53:26.346Z,4.47
2018-03-20T07:56:00.814Z,5.60
2018-03-20T07:58:35.725Z,3.33
2018-03-20T08:01:10.612Z,4.10
2018-03-20T08:03:45.791Z,4.13
2018-03-20T08:06:20.451Z,4.17
2018-03-20T08:08:55.374Z,3.33
2018-03-20T08:11:30.382Z,4.23
2018-03-20T08:14:05.354Z,3.93
2018-03-20T08:16:40.370Z,7.05
2018-03-20T08:19:15.507Z,7.97
2018-03-20T08:21:50.430Z,3.93
2018-03-20T08:24:25.464Z,3.63
2018-03-20T08:26:59.639Z,3.70
2018-03-20T08:29:34.617Z,5.77
2018-03-20T08:32:09.398Z,4.20
2018-03-20T08:34:45.760Z,7.24
2018-03-20T08:37:21.397Z,4.60
2018-03-20T08:39:56.934Z,5.30
2018-03-20T08:42:31.790Z,11.17
2018-03-20T08:45:06.772Z,7.53
2018-03-20T08:47:41.789Z,9.70
2018-03-20T08:50:16.562Z,8.13
2018-03-20T08:52:51.830Z,5.78
2018-03-20T08:55:27.482Z,3.60
2018-03-20T08:58:02.422Z,5.10
2018-03-20T09:00:36.846Z,4.27
2018-03-20T09:03:11.378Z,3.60
2018-03-20T09:05:46.594Z,2.63
2018-03-20T09:08:21.460Z,5.35
2018-03-20T09:10:56.774Z,3.57
2018-03-20T09:13:31.858Z,3.53
2018-03-20T09:16:06.727Z,2.43
2018-03-20T09:18:41.605Z,3.77
2018-03-20T09:21:16.506Z,3.30
2018-03-20T09:23:51.529Z,3.20
2018-03-20T09:26:26.082Z,2.10
2018-03-20T09:29:00.906Z,3.33
2018-03-20T09:31:35.739Z,4.00
2018-03-20T09:34:10.964Z,6.73
2018-03-20T09:36:46.050Z,5.80
2018-03-20T09:39:20.554Z,2.23
2018-03-20T09:41:55.603Z,1.90
2018-03-20T09:44:30.495Z,4.80
2018-03-20T09:47:05.559Z,4.53
2018-03-20T09:49:40.783Z,1.63
2018-03-20T09:52:15.281Z,2.63
2018-03-20T09:54:50.662Z,2.08
2018-03-20T09:57:25.902Z,1.67
2018-03-20T10:00:00.662Z,2.90
2018-03-20T10:02:35.715Z,2.03
2018-03-20T10:05:10.690Z,1.87
2018-03-20T10:07:45.938Z,3.50
2018-03-20T10:10:21.017Z,2.60
2018-03-20T10:12:55.999Z,2.78
2018-03-20T10:15:30.885Z,3.20
2018-03-20T10:18:05.694Z,1.53
2018-03-20T10:20:40.779Z,1.67
2018-03-20T10:23:15.838Z,1.50
2018-03-20T10:25:50.701Z,2.30
2018-03-20T10:28:25.635Z,1.98
2018-03-20T10:31:00.682Z,5.43
2018-03-20T10:33:35.562Z,2.97
2018-03-20T10:36:09.890Z,1.70
2018-03-20T10:38:45.993Z,1.23
2018-03-20T10:41:20.740Z,2.50
2018-03-20T10:43:56.010Z,3.95
2018-03-20T10:46:30.758Z,5.55
2018-03-20T10:49:05.079Z,1.87
2018-03-20T10:51:40.042Z,1.20
2018-03-20T10:54:14.587Z,2.90
2018-03-20T10:56:49.807Z,1.37
2018-03-20T10:59:24.762Z,1.87
2018-03-20T11:02:05.518Z,5.12
2018-03-20T11:04:40.034Z,1.60
2018-03-20T11:07:14.947Z,2.30
2018-03-20T11:09:50.073Z,1.13
2018-03-20T11:12:25.825Z,2.00
2018-03-20T11:15:00.168Z,4.12
2018-03-20T11:17:35.023Z,3.33
2018-03-20T11:20:09.954Z,2.73
2018-03-20T11:22:46.156Z,1.65
2018-03-20T11:25:20.928Z,1.10
2018-03-20T11:27:55.893Z,1.20
2018-03-20T11:30:30.865Z,3.90
2018-03-20T11:33:05.082Z,1.63
2018-03-20T11:35:40.331Z,2.47
2018-03-20T11:38:15.808Z,1.23
2018-03-20T11:40:50.833Z,1.10
2018-03-20T11:43:26.102Z,4.10
2018-03-20T11:46:01.174Z,0.70
2018-03-20T11:48:36.209Z,1.20
2018-03-20T11:51:11.201Z,3.10
2018-03-20T11:53:46.325Z,2.90
2018-03-20T11:56:20.990Z,1.80
2018-03-20T11:58:56.127Z,1.30
2018-03-20T12:01:30.988Z,4.00
2018-03-20T12:04:05.671Z,1.00
2018-03-20T12:06:40.731Z,1.00
2018-03-20T12:09:26.931Z,2.17
2018-03-20T12:12:01.502Z,1.70
2018-03-20T12:14:36.067Z,1.60
2018-03-20T12:17:10.765Z,4.25
2018-03-20T12:19:46.343Z,1.15
2018-03-20T12:22:21.606Z,2.13
2018-03-20T12:24:56.536Z,2.30
2018-03-20T12:27:31.482Z,2.63
2018-03-20T12:30:05.902Z,1.50
2018-03-20T12:32:41.068Z,1.77
2018-03-20T12:35:16.028Z,2.53
2018-03-20T12:37:50.550Z,1.70
2018-03-20T12:40:25.969Z,0.90
2018-03-20T12:43:00.652Z,2.03
2018-03-20T12:45:36.012Z,2.12
2018-03-20T12:48:10.554Z,1.53
2018-03-20T12:50:46.347Z,2.03
2018-03-20T12:53:20.992Z,1.87
2018-03-20T12:55:55.350Z,1.30
2018-03-20T12:58:30.244Z,2.37
2018-03-20T13:01:05.368Z,1.67
2018-03-20T13:03:40.093Z,3.33
2018-03-20T13:06:15.175Z,3.07
2018-03-20T13:08:50.103Z,2.20
2018-03-20T13:11:25.380Z,3.50
2018-03-20T13:14:00.402Z,1.65
2018-03-20T13:16:35.351Z,1.93
2018-03-20T13:19:10.314Z,3.07
2018-03-20T13:21:46.601Z,1.92
2018-03-20T13:24:21.127Z,3.33
2018-03-20T13:26:56.191Z,2.50
2018-03-20T13:29:31.043Z,1.98
2018-03-20T13:32:05.679Z,1.57
2018-03-20T13:34:40.576Z,4.40
2018-03-20T13:37:15.517Z,1.40
2018-03-20T13:39:50.333Z,2.28
2018-03-20T13:42:25.219Z,3.37
2018-03-20T13:45:00.386Z,2.73
2018-03-20T13:47:35.162Z,1.33
2018-03-20T13:50:10.146Z,1.40
2018-03-20T13:52:49.379Z,1.30
2018-03-20T13:55:21.294Z,1.80
2018-03-20T13:57:57.117Z,1.50
2018-03-20T14:00:32.293Z,1.30
2018-03-20T14:03:07.188Z,3.13
2018-03-20T14:05:42.163Z,1.67
2018-03-20T14:08:17.111Z,2.30
2018-03-20T14:10:51.913Z,4.40
2018-03-20T14:13:26.511Z,3.27
2018-03-20T14:16:01.566Z,1.00
2018-03-20T14:18:36.642Z,1.90
2018-03-20T14:21:11.406Z,3.47
2018-03-20T14:23:46.642Z,1.73
2018-03-20T14:26:23.106Z,1.80
2018-03-20T14:28:58.498Z,2.78
2018-03-20T14:31:33.330Z,1.40
2018-03-20T14:34:08.282Z,3.78
2018-03-20T14:36:43.367Z,2.73
2018-03-20T14:39:18.351Z,1.00
2018-03-20T14:41:52.965Z,2.45
2018-03-20T14:44:28.250Z,2.60
2018-03-20T14:47:02.617Z,1.55
2018-03-20T14:49:37.624Z,4.60
2018-03-20T14:52:12.570Z,1.93
2018-03-20T14:54:47.636Z,1.80
2018-03-20T14:57:22.404Z,1.30
2018-03-20T14:59:57.449Z,1.60
2018-03-20T15:02:32.411Z,1.30
2018-03-20T15:05:07.366Z,2.20
2018-03-20T15:07:42.307Z,4.18
2018-03-20T15:10:16.955Z,1.93
2018-03-20T15:12:51.799Z,4.53
2018-03-20T15:15:26.761Z,1.87
2018-03-20T15:18:01.871Z,2.03
2018-03-20T15:20:37.416Z,1.57
2018-03-20T15:23:12.306Z,2.42
2018-03-20T15:25:46.971Z,1.30
2018-03-20T15:28:21.942Z,4.67
2018-03-20T15:30:57.451Z,4.28
2018-03-20T15:33:31.906Z,6.13
2018-03-20T15:36:06.844Z,1.33
2018-03-20T15:38:41.803Z,1.53
2018-03-20T15:41:16.862Z,1.53
2018-03-20T15:43:52.583Z,1.48
2018-03-20T15:46:26.923Z,1.90
2018-03-20T15:49:02.018Z,1.90
2018-03-20T15:51:36.906Z,1.50
2018-03-20T15:54:12.412Z,2.35
2018-03-20T15:56:46.848Z,1.83
2018-03-20T15:59:22.395Z,1.77
2018-03-20T16:01:56.749Z,2.55
2018-03-20T16:04:31.879Z,2.10
2018-03-20T16:07:07.042Z,2.77
2018-03-20T16:09:41.889Z,1.43
2018-03-20T16:12:16.765Z,3.50
2018-03-20T16:14:51.837Z,2.03
2018-03-20T16:17:26.620Z,3.23
2018-03-20T16:20:01.679Z,3.73
2018-03-20T16:22:36.294Z,2.90
2018-03-20T16:25:11.547Z,1.80
2018-03-20T16:27:46.990Z,5.80
2018-03-20T16:30:22.514Z,2.00
2018-03-20T16:32:56.998Z,2.87
2018-03-20T16:35:31.932Z,2.20
2018-03-20T16:38:06.919Z,2.90
2018-03-20T16:40:41.875Z,2.03
2018-03-20T16:43:16.659Z,1.70
2018-03-20T16:45:51.867Z,2.90
2018-03-20T16:48:26.549Z,1.50
2018-03-20T16:51:01.780Z,3.35
2018-03-20T16:53:36.578Z,1.37
2018-03-20T16:56:11.650Z,2.07
2018-03-20T16:58:47.001Z,1.30
2018-03-20T17:01:22.066Z,2.20
2018-03-20T17:03:58.815Z,2.40
2018-03-20T17:06:33.768Z,2.50
2018-03-20T17:09:08.430Z,2.27
2018-03-20T17:11:43.730Z,1.60
2018-03-20T17:14:19.511Z,1.70
2018-03-20T17:16:54.127Z,2.63
2018-03-20T17:19:29.107Z,3.13
2018-03-20T17:22:03.534Z,3.80
2018-03-20T17:24:38.768Z,1.90
2018-03-20T17:27:13.631Z,5.50
2018-03-20T17:29:48.881Z,2.20
2018-03-20T17:32:23.646Z,6.97
2018-03-20T17:34:58.756Z,2.50
2018-03-20T17:37:33.184Z,1.90
2018-03-20T17:40:08.090Z,3.40
2018-03-20T17:42:43.158Z,3.90
2018-03-20T17:45:18.617Z,1.70
2018-03-20T17:47:53.078Z,2.40
2018-03-20T17:50:28.021Z,4.07
2018-03-20T17:53:02.667Z,2.53
2018-03-20T17:55:37.608Z,3.43
2018-03-20T17:58:12.589Z,3.43
2018-03-20T18:00:48.170Z,3.47
2018-03-20T18:03:23.629Z,2.87
2018-03-20T18:05:58.049Z,4.87
2018-03-20T18:08:33.362Z,4.90
2018-03-20T18:11:07.978Z,2.83
2018-03-20T18:13:42.951Z,2.50
2018-03-20T18:16:17.463Z,6.17
2018-03-20T18:19:18.265Z,9.56
2018-03-20T18:21:53.764Z,6.45
2018-03-20T18:24:28.405Z,2.40
2018-03-20T18:27:03.014Z,9.57
2018-03-20T18:29:37.961Z,12.60
2018-03-20T18:32:12.909Z,17.67
2018-03-20T18:34:48.177Z,13.30
2018-03-20T18:37:23.008Z,8.70
2018-03-20T18:39:58.109Z,6.65
2018-03-20T18:42:33.698Z,9.27
2018-03-20T18:45:08.654Z,16.87
2018-03-20T18:47:43.738Z,19.85
2018-03-20T18:50:18.084Z,31.27
2018-03-20T18:52:53.230Z,19.48
2018-03-20T18:55:28.327Z,41.73
2018-03-20T18:58:03.043Z,33.37
2018-03-20T19:00:37.973Z,14.70
2018-03-20T19:03:12.913Z,10.50
2018-03-20T19:05:47.794Z,13.90
2018-03-20T19:08:22.915Z,8.40
2018-03-20T19:10:58.078Z,7.40
2018-03-20T19:13:33.861Z,7.15
2018-03-20T19:16:08.547Z,7.57
2018-03-20T19:18:43.384Z,11.67
2018-03-20T19:21:18.920Z,9.80
2018-03-20T19:23:53.743Z,6.87
2018-03-20T19:26:29.002Z,4.33
2018-03-20T19:29:04.088Z,6.10
2018-03-20T19:31:39.479Z,6.83
2018-03-20T19:34:15.767Z,5.32
2018-03-20T19:36:50.895Z,4.85
2018-03-20T19:39:25.531Z,6.03
2018-03-20T19:42:00.270Z,6.87
2018-03-20T19:44:35.254Z,4.40
2018-03-20T19:47:10.154Z,5.53
2018-03-20T19:49:45.104Z,3.37
2018-03-20T19:52:20.122Z,5.30
2018-03-20T19:54:54.498Z,7.50
2018-03-20T19:57:29.290Z,2.43
2018-03-20T20:00:03.885Z,5.17
2018-03-20T20:02:38.216Z,2.53
2018-03-20T20:05:13.083Z,2.70
2018-03-20T20:07:48.140Z,6.30
2018-03-20T20:10:23.132Z,4.23
2018-03-20T20:12:58.386Z,6.03
2018-03-20T20:15:34.082Z,8.97
2018-03-20T20:18:09.055Z,2.93
2018-03-20T20:20:43.992Z,4.20
2018-03-20T20:23:18.972Z,2.20
2018-03-20T20:25:53.662Z,4.55
2018-03-20T20:28:28.625Z,3.67
2018-03-20T20:31:04.086Z,3.67
2018-03-20T20:33:39.062Z,4.03
2018-03-20T20:36:14.584Z,2.53
2018-03-20T20:38:49.415Z,3.83
2018-03-20T20:41:24.291Z,3.23
2018-03-20T20:43:59.317Z,4.82
2018-03-20T20:46:34.222Z,4.60
2018-03-20T20:49:09.306Z,2.80
2018-03-20T20:51:43.802Z,4.93
2018-03-20T20:54:18.945Z,6.10
2018-03-20T20:56:54.106Z,5.45
2018-03-20T20:59:29.010Z,2.53
2018-03-20T21:02:03.731Z,3.97
2018-03-20T21:04:38.499Z,4.77
2018-03-20T21:07:13.715Z,4.13
2018-03-20T21:09:48.430Z,5.53
2018-03-20T21:12:23.244Z,5.83
2018-03-20T21:14:58.614Z,3.70
2018-03-20T21:17:33.247Z,4.00
2018-03-20T21:20:08.364Z,5.13
2018-03-20T21:22:43.405Z,10.40
2018-03-20T21:25:18.343Z,13.63
2018-03-20T21:27:53.613Z,6.30
2018-03-20T21:30:29.149Z,6.53
2018-03-20T21:33:04.128Z,3.80
2018-03-20T21:35:39.173Z,4.72
2018-03-20T21:38:14.118Z,3.23
2018-03-20T21:40:48.796Z,2.67
2018-03-20T21:43:24.271Z,5.37
2018-03-20T21:45:59.104Z,3.15
2018-03-20T21:48:34.350Z,2.62
2018-03-20T21:51:09.275Z,2.80
2018-03-20T21:53:44.466Z,1.87
2018-03-20T21:56:19.207Z,4.47
2018-03-20T21:58:53.904Z,2.40
2018-03-20T22:01:29.446Z,3.07
2018-03-20T22:04:03.813Z,2.40
2018-03-20T22:06:39.125Z,3.10
2018-03-20T22:09:14.255Z,3.17
2018-03-20T22:11:49.392Z,2.40
2018-03-20T22:14:24.274Z,6.53
2018-03-20T22:16:59.362Z,2.67
2018-03-20T22:19:34.383Z,1.80
2018-03-20T22:22:09.335Z,3.93
2018-03-20T22:24:44.399Z,4.13
2018-03-20T22:27:19.244Z,3.07
2018-03-20T22:29:54.205Z,6.12
2018-03-20T22:32:28.838Z,8.53
2018-03-20T22:35:03.714Z,1.73
2018-03-20T22:37:38.386Z,7.30
2018-03-20T22:40:13.038Z,5.30
2018-03-20T22:42:47.829Z,2.97
2018-03-20T22:45:22.778Z,8.93
2018-03-20T22:47:57.826Z,2.10
2018-03-20T22:50:32.637Z,3.23
2018-03-20T22:53:07.686Z,2.40
2018-03-20T22:55:42.852Z,4.07
2018-03-20T22:58:17.749Z,4.20
2018-03-20T23:00:52.426Z,2.50
2018-03-20T23:03:27.486Z,4.13
2018-03-20T23:06:02.381Z,2.20
2018-03-20T23:08:37.392Z,3.03
2018-03-20T23:11:12.814Z,4.03
2018-03-20T23:13:47.805Z,3.00
2018-03-20T23:16:22.777Z,5.30
2018-03-20T23:18:57.390Z,8.27
2018-03-20T23:21:32.670Z,5.60
2018-03-20T23:24:07.504Z,9.67
2018-03-20T23:26:42.477Z,5.70
2018-03-20T23:29:17.478Z,2.87
2018-03-20T23:31:52.546Z,4.87
2018-03-20T23:34:27.021Z,6.77
2018-03-20T23:37:01.860Z,4.93
2018-03-20T23:39:37.235Z,3.57
2018-03-20T23:42:11.817Z,5.30
2018-03-20T23:44:47.527Z,4.95
2018-03-20T23:47:22.683Z,4.33
2018-03-20T23:49:57.735Z,8.32
2018-03-20T23:52:32.535Z,4.10
2018-03-20T23:55:07.591Z,3.77
2018-03-20T23:57:42.437Z,3.67
